Time;durP1;ratioP1;P1;durP2;ratioP2;P2;SDS_P1;SDS_P2;PMS_P1;PMS_P2;Temp;Humidity;BMP_temperature;BMP_pressure;BME280_temperature;BME280_humidity;BME280_pressure;Samples;Min_cycle;Max_cycle;Signal;HPM_P1;HPM_P2
2021/12/28 00:00:09;;;;;;;38.70;26.73;;;;;;;8.24;77.14;100687.09;5028181;28;20080;-71
2021/12/28 00:02:36;;;;;;;40.65;27.40;;;;;;;8.23;76.88;100688.88;5028084;28;20164;-70
2021/12/28 00:05:03;;;;;;;44.40;29.08;;;;;;;8.23;77.23;100688.88;5027259;28;20111;-71
2021/12/28 00:07:30;;;;;;;40.80;27.48;;;;;;;8.23;77.11;100688.88;5031240;28;20053;-71
2021/12/28 00:09:57;;;;;;;44.40;28.58;;;;;;;8.22;77.19;100681.97;5034464;28;20053;-71
2021/12/28 00:12:23;;;;;;;45.35;28.58;;;;;;;8.24;77.21;100689.72;5035157;28;20488;-71
2021/12/28 00:15:03;;;;;;;45.33;28.52;;;;;;;8.25;77.24;100697.50;5035197;28;20099;-71
2021/12/28 00:20:14;;;;;;;44.42;27.05;;;;;;;8.20;77.38;100694.25;5035147;28;20075;-71
2021/12/28 00:22:41;;;;;;;43.90;28.00;;;;;;;8.21;77.26;100705.56;5034014;28;20045;-71
2021/12/28 00:25:10;;;;;;;43.97;28.95;;;;;;;8.18;77.20;100702.16;5034541;28;20111;-71
2021/12/28 00:27:38;;;;;;;42.45;28.17;;;;;;;8.16;77.61;100697.94;5034899;28;20104;-71
2021/12/28 00:30:06;;;;;;;41.53;26.77;;;;;;;8.16;77.54;100698.78;5033996;28;20053;-71
2021/12/28 00:32:33;;;;;;;43.97;28.08;;;;;;;8.17;77.57;100695.22;5034769;28;20088;-71
2021/12/28 00:34:59;;;;;;;42.40;27.67;;;;;;;8.22;77.66;100699.41;5034371;28;20049;-71
2021/12/28 00:37:26;;;;;;;41.33;26.98;;;;;;;8.20;77.53;100701.25;5034660;28;20446;-71
2021/12/28 00:39:53;;;;;;;43.42;27.98;;;;;;;8.13;77.70;100706.75;5033401;28;20470;-71
2021/12/28 00:42:19;;;;;;;37.97;25.50;;;;;;;8.17;77.83;100705.69;5034942;28;20049;-71
2021/12/28 00:44:46;;;;;;;41.35;28.10;;;;;;;8.18;77.76;100715.22;5034724;28;20046;-72
2021/12/28 00:47:13;;;;;;;41.92;27.38;;;;;;;8.21;77.79;100700.34;5034539;28;20129;-71
2021/12/28 00:49:40;;;;;;;39.13;26.65;;;;;;;8.23;77.67;100701.97;5034474;28;20111;-70
2021/12/28 00:52:07;;;;;;;39.78;26.85;;;;;;;8.24;77.70;100695.81;5034408;28;20041;-71
2021/12/28 00:54:34;;;;;;;38.92;25.42;;;;;;;8.24;77.50;100689.72;5034085;28;20105;-70
2021/12/28 00:57:01;;;;;;;38.30;26.30;;;;;;;8.24;77.74;100687.97;5033064;28;20124;-71
2021/12/28 00:59:28;;;;;;;37.63;24.73;;;;;;;8.27;77.75;100689.59;5034378;28;20099;-71
2021/12/28 01:01:55;;;;;;;40.03;27.10;;;;;;;8.25;77.68;100686.19;5034216;28;20096;-71
2021/12/28 01:04:24;;;;;;;38.05;25.65;;;;;;;8.26;77.83;100680.88;5034295;28;20050;-70
2021/12/28 01:06:50;;;;;;;36.55;25.13;;;;;;;8.27;77.86;100684.38;5034423;28;20068;-71
2021/12/28 01:09:17;;;;;;;40.00;26.10;;;;;;;8.31;77.73;100684.13;5033739;28;20487;-70
2021/12/28 01:11:44;;;;;;;39.72;26.90;;;;;;;8.30;77.88;100685.06;5034258;28;20500;-70
2021/12/28 01:14:11;;;;;;;40.55;26.83;;;;;;;8.29;77.83;100687.72;5032941;28;20045;-70
2021/12/28 01:16:37;;;;;;;38.50;26.17;;;;;;;8.30;77.72;100690.28;5034070;28;20107;-71
2021/12/28 01:19:05;;;;;;;40.00;26.33;;;;;;;8.30;77.85;100692.91;5033803;28;20121;-71
2021/12/28 01:21:32;;;;;;;37.38;25.83;;;;;;;8.30;77.91;100694.66;5033357;28;20049;-71
2021/12/28 01:23:58;;;;;;;40.15;26.30;;;;;;;8.30;77.76;100702.50;5033298;28;20053;-70
2021/12/28 01:26:26;;;;;;;35.08;24.50;;;;;;;8.30;77.85;100703.38;5033902;28;20426;-70
2021/12/28 01:28:52;;;;;;;39.97;26.52;;;;;;;8.31;77.78;100697.19;5032723;28;20053;-70
2021/12/28 01:31:20;;;;;;;37.33;25.67;;;;;;;8.30;77.79;100703.38;5033902;28;20041;-70
2021/12/28 01:33:47;;;;;;;38.03;25.20;;;;;;;8.32;77.58;100698.88;5033825;28;20049;-70
2021/12/28 01:36:14;;;;;;;41.70;26.05;;;;;;;8.30;77.92;100700.75;5033507;28;20495;-70
2021/12/28 01:38:41;;;;;;;37.67;24.35;;;;;;;8.30;77.96;100695.53;5033327;28;20042;-70
2021/12/28 01:41:10;;;;;;;39.03;25.80;;;;;;;8.30;77.99;100697.28;5033594;28;20053;-72
2021/12/28 01:43:40;;;;;;;36.05;24.70;;;;;;;8.31;77.97;100705.03;5033581;28;20103;-70
2021/12/28 01:46:07;;;;;;;37.10;25.33;;;;;;;8.30;77.83;100707.72;5030613;28;20080;-71
2021/12/28 01:48:38;;;;;;;36.85;24.65;;;;;;;8.30;77.92;100697.28;5029528;28;20054;-71
2021/12/28 01:51:12;;;;;;;38.30;24.27;;;;;;;8.29;77.98;100704.28;5030118;28;20076;-71
2021/12/28 01:53:39;;;;;;;39.95;25.33;;;;;;;8.30;78.03;100705.97;5029737;28;20072;-71
2021/12/28 01:56:10;;;;;;;37.25;24.70;;;;;;;8.31;77.92;100706.81;5029851;28;20095;-71
2021/12/28 01:58:37;;;;;;;36.67;23.92;;;;;;;8.31;77.86;100707.66;5030002;28;20403;-71
2021/12/28 02:01:04;;;;;;;34.50;23.00;;;;;;;8.31;77.94;100712.03;5029897;28;20095;-70
2021/12/28 02:03:32;;;;;;;35.20;23.00;;;;;;;8.31;78.03;100725.94;5028638;28;20119;-70
2021/12/28 02:05:59;;;;;;;32.60;21.98;;;;;;;8.30;78.09;100718.19;5029038;28;20053;-70
2021/12/28 02:08:27;;;;;;;38.58;25.00;;;;;;;8.28;77.99;100715.66;5029303;28;20491;-70
2021/12/28 02:10:55;;;;;;;33.55;22.88;;;;;;;8.26;78.03;100716.66;5029676;28;20057;-70
2021/12/28 02:13:24;;;;;;;35.70;23.58;;;;;;;8.27;77.90;100705.28;5029960;28;20048;-70
2021/12/28 02:15:51;;;;;;;32.58;22.52;;;;;;;8.28;77.86;100706.97;5029610;28;20419;-70
2021/12/28 02:18:21;;;;;;;32.45;22.27;;;;;;;8.30;77.95;100707.72;5028741;28;20107;-70
2021/12/28 02:20:48;;;;;;;33.45;22.55;;;;;;;8.30;77.96;100700.75;5029622;28;20042;-70
2021/12/28 02:23:15;;;;;;;33.38;23.48;;;;;;;8.28;77.66;100707.81;5029041;28;20099;-70
2021/12/28 02:25:43;;;;;;;33.75;23.38;;;;;;;8.29;77.99;100711.25;5029642;28;20101;-70
2021/12/28 02:28:11;;;;;;;33.80;23.35;;;;;;;8.28;77.92;100705.19;5029213;28;20053;-70
2021/12/28 02:30:41;;;;;;;36.00;25.23;;;;;;;8.27;77.95;100697.44;5029631;28;20045;-70
2021/12/28 02:33:08;;;;;;;36.25;24.17;;;;;;;8.29;77.98;100700.81;5027443;28;20063;-70
2021/12/28 02:35:35;;;;;;;36.60;24.85;;;;;;;8.29;77.90;100688.59;5029218;28;20058;-70
2021/12/28 02:38:04;;;;;;;39.63;26.13;;;;;;;8.25;78.08;100689.66;5028669;28;20080;-70
2021/12/28 02:40:32;;;;;;;41.17;27.30;;;;;;;8.24;78.17;100687.97;5029196;28;20045;-70
2021/12/28 02:43:01;;;;;;;43.60;27.83;;;;;;;8.27;78.15;100681.75;5029042;28;20072;-70
2021/12/28 02:45:36;;;;;;;46.88;28.65;;;;;;;8.27;77.84;100679.13;5029211;28;20041;-70
2021/12/28 02:48:05;;;;;;;48.00;29.40;;;;;;;8.21;78.19;100672.41;5029109;28;20049;-70
2021/12/28 02:50:48;;;;;;;47.72;28.00;;;;;;;8.23;78.25;100672.34;5028432;28;20053;-70
2021/12/28 02:53:17;;;;;;;51.38;29.80;;;;;;;8.14;78.34;100669.25;5028855;28;20053;-70
2021/12/28 02:55:45;;;;;;;48.90;28.77;;;;;;;8.15;78.63;100651.78;5028906;28;20080;-70
2021/12/28 02:58:25;;;;;;;47.22;28.17;;;;;;;8.17;78.56;100647.34;5028844;28;20057;-71
2021/12/28 03:00:57;;;;;;;51.53;30.00;;;;;;;8.20;78.34;100646.34;5028892;28;20099;-71
2021/12/28 03:03:28;;;;;;;43.47;28.88;;;;;;;8.20;78.36;100638.50;5029101;28;20049;-71
2021/12/28 03:05:57;;;;;;;48.20;29.30;;;;;;;8.22;78.17;100629.69;5027799;28;20045;-71
2021/12/28 03:08:26;;;;;;;46.70;27.73;;;;;;;8.24;78.21;100625.22;5028456;28;20115;-70
2021/12/28 03:10:54;;;;;;;52.67;29.58;;;;;;;8.25;78.34;100621.69;5032388;28;20051;-70
2021/12/28 03:13:24;;;;;;;47.47;28.83;;;;;;;8.26;78.29;100612.91;5028544;28;20491;-70
2021/12/28 03:15:52;;;;;;;45.47;29.67;;;;;;;8.26;78.26;100610.28;5027355;28;20103;-71
2021/12/28 03:18:20;;;;;;;48.80;29.40;;;;;;;8.27;78.20;100608.56;5028863;28;20053;-71
2021/12/28 03:20:48;;;;;;;47.38;28.48;;;;;;;8.26;78.15;100605.06;5027887;28;20107;-71
2021/12/28 03:23:16;;;;;;;47.85;29.45;;;;;;;8.26;78.15;100597.22;5028973;28;20495;-71
2021/12/28 03:25:43;;;;;;;44.63;28.30;;;;;;;8.27;78.26;100598.09;5028547;28;20049;-71
2021/12/28 03:28:20;;;;;;;44.58;28.13;;;;;;;8.25;78.29;100592.09;5028462;28;20115;-71
2021/12/28 03:30:48;;;;;;;44.05;28.48;;;;;;;8.26;78.34;100586.78;5028780;28;20119;-71
2021/12/28 03:33:15;;;;;;;43.15;27.90;;;;;;;8.26;78.20;100593.78;5028453;28;20045;-71
2021/12/28 03:35:41;;;;;;;45.65;27.02;;;;;;;8.26;78.28;100594.63;5027410;28;21113;-70
2021/12/28 03:38:08;;;;;;;43.03;27.08;;;;;;;8.27;78.16;100585.03;5028373;28;20053;-70
2021/12/28 03:40:35;;;;;;;41.70;26.55;;;;;;;8.28;78.11;100578.88;5028496;28;20172;-71
2021/12/28 03:43:01;;;;;;;44.67;27.98;;;;;;;8.26;78.29;100578.94;5028886;28;20450;-71
2021/12/28 03:45:28;;;;;;;38.22;25.80;;;;;;;8.27;78.18;100580.63;5032601;28;20049;-71
2021/12/28 03:47:55;;;;;;;42.88;26.63;;;;;;;8.29;78.05;100583.16;5032442;28;20042;-71
2021/12/28 03:50:25;;;;;;;43.03;27.35;;;;;;;8.28;78.03;100587.56;5032219;28;20194;-71
2021/12/28 03:52:54;;;;;;;43.22;26.92;;;;;;;8.27;78.12;100598.94;5032112;28;20045;-71
2021/12/28 03:55:22;;;;;;;39.88;25.70;;;;;;;8.27;78.19;100588.47;5031047;28;20049;-71
2021/12/28 03:57:50;;;;;;;41.60;26.88;;;;;;;8.28;78.12;100602.41;5032161;28;20057;-71
2021/12/28 04:00:20;;;;;;;40.40;26.38;;;;;;;8.28;78.23;100603.25;5032487;28;20046;-71
2021/12/28 04:02:47;;;;;;;41.95;27.50;;;;;;;8.30;77.99;100600.53;5032264;28;20053;-71
2021/12/28 04:05:16;;;;;;;42.85;27.58;;;;;;;8.31;78.26;100608.31;5031978;28;20048;-71
2021/12/28 04:07:44;;;;;;;40.50;26.55;;;;;;;8.30;78.08;100613.63;5031978;28;20056;-71
2021/12/28 04:10:11;;;;;;;43.10;27.35;;;;;;;8.30;78.21;100622.31;5031622;28;20107;-71
2021/12/28 04:12:40;;;;;;;41.75;26.75;;;;;;;8.29;78.08;100627.59;5030917;28;20103;-71
2021/12/28 04:15:09;;;;;;;46.45;27.85;;;;;;;8.31;78.06;100625.78;5031773;28;20087;-71
2021/12/28 04:17:37;;;;;;;44.22;27.88;;;;;;;8.30;78.31;100632.78;5031812;28;20053;-70
2021/12/28 04:20:10;;;;;;;41.60;26.00;;;;;;;8.31;78.09;100629.22;5031682;28;20060;-71
2021/12/28 04:22:38;;;;;;;41.80;27.35;;;;;;;8.32;78.20;100624.84;5031708;28;20111;-71
2021/12/28 04:25:06;;;;;;;41.83;26.52;;;;;;;8.31;78.15;100638.84;5031840;28;20491;-71
2021/12/28 04:27:32;;;;;;;44.65;27.35;;;;;;;8.28;78.19;100641.63;5030511;28;20091;-71
2021/12/28 04:29:59;;;;;;;44.60;28.48;;;;;;;8.23;78.44;100641.84;5031755;28;20103;-71
2021/12/28 04:32:26;;;;;;;44.22;27.48;;;;;;;8.16;78.42;100650.88;5031724;28;20076;-72
2021/12/28 04:34:52;;;;;;;44.45;28.52;;;;;;;8.14;78.43;100661.41;5031408;28;20488;-71
2021/12/28 04:37:21;;;;;;;50.38;29.10;;;;;;;8.13;78.66;100669.34;5031123;28;20049;-71
2021/12/28 04:39:47;;;;;;;51.97;30.60;;;;;;;8.07;78.73;100667.84;5031566;28;20045;-71
2021/12/28 04:42:14;;;;;;;44.58;28.08;;;;;;;8.09;78.73;100662.56;5030371;28;20045;-71
2021/12/28 04:44:41;;;;;;;50.33;30.15;;;;;;;8.07;78.67;100660.00;5031630;28;20050;-71
2021/12/28 04:47:07;;;;;;;45.85;27.88;;;;;;;8.04;78.78;100678.47;5031594;28;20053;-71
2021/12/28 04:49:34;;;;;;;47.97;29.27;;;;;;;8.08;78.82;100682.63;5031506;28;20509;-71
2021/12/28 04:52:02;;;;;;;47.15;28.73;;;;;;;8.05;78.69;100680.16;5031084;28;20049;-71
2021/12/28 04:54:28;;;;;;;48.95;29.05;;;;;;;8.08;78.87;100672.16;5030648;28;20045;-71
2021/12/28 04:56:55;;;;;;;47.40;28.65;;;;;;;8.06;78.72;100663.53;5030912;28;20099;-71
2021/12/28 04:59:21;;;;;;;44.67;29.70;;;;;;;8.08;78.70;100651.25;5031269;28;20046;-71
2021/12/28 05:01:48;;;;;;;46.22;29.42;;;;;;;8.12;78.88;100633.66;5029920;28;20094;-71
2021/12/28 05:04:15;;;;;;;47.95;28.02;;;;;;;8.15;78.89;100629.13;5031438;28;20056;-70
2021/12/28 05:06:42;;;;;;;46.13;27.83;;;;;;;8.17;78.74;100624.66;5030954;28;20057;-71
2021/12/28 05:09:10;;;;;;;48.95;28.90;;;;;;;8.20;78.74;100631.50;5030674;28;20049;-71
2021/12/28 05:11:38;;;;;;;47.70;28.35;;;;;;;8.21;78.59;100627.97;5030854;28;20045;-71
2021/12/28 05:14:05;;;;;;;47.63;29.27;;;;;;;8.21;78.69;100635.81;5030770;28;20491;-71
2021/12/28 05:16:33;;;;;;;48.75;28.55;;;;;;;8.17;78.69;100636.91;5030276;28;20099;-71
2021/12/28 05:19:03;;;;;;;49.63;29.40;;;;;;;8.14;78.85;100642.28;5030288;28;20060;-71
2021/12/28 05:21:29;;;;;;;47.60;28.13;;;;;;;8.14;78.78;100640.50;5030711;28;20057;-71
2021/12/28 05:23:56;;;;;;;47.58;28.10;;;;;;;8.15;78.83;100652.66;5030717;28;20496;-71
2021/12/28 05:26:23;;;;;;;51.30;28.83;;;;;;;8.14;78.80;100644.91;5030510;28;20107;-71
2021/12/28 05:28:50;;;;;;;49.25;29.67;;;;;;;8.15;78.87;100643.94;5030727;28;20085;-71
2021/12/28 05:31:17;;;;;;;51.28;30.48;;;;;;;8.12;78.88;100652.78;5030538;28;20052;-71
2021/12/28 05:33:45;;;;;;;49.67;28.58;;;;;;;8.09;78.93;100650.34;5030492;28;20462;-71
2021/12/28 05:36:11;;;;;;;55.17;29.40;;;;;;;8.08;78.90;100647.81;5028950;28;20053;-71
2021/12/28 05:38:38;;;;;;;57.38;30.60;;;;;;;8.04;79.09;100647.09;5030640;28;20103;-71
2021/12/28 05:41:05;;;;;;;55.38;30.90;;;;;;;8.02;78.98;100656.75;5030261;28;20045;-71
2021/12/28 05:43:32;;;;;;;58.67;32.13;;;;;;;8.03;79.20;100658.47;5030563;28;20514;-71
2021/12/28 05:45:59;;;;;;;57.53;31.92;;;;;;;8.01;79.03;100658.53;5030155;28;20045;-71
2021/12/28 05:48:26;;;;;;;61.72;33.15;;;;;;;8.03;79.14;100652.41;5030149;28;20073;-71
2021/12/28 05:50:52;;;;;;;53.88;30.50;;;;;;;7.99;79.13;100646.47;5029242;28;20041;-71
2021/12/28 05:53:19;;;;;;;54.53;31.40;;;;;;;7.98;79.18;100650.84;5030149;28;20103;-70
2021/12/28 05:55:46;;;;;;;57.03;30.25;;;;;;;8.01;79.38;100639.38;5030261;28;20045;-71
2021/12/28 05:58:12;;;;;;;58.15;31.48;;;;;;;8.03;79.26;100634.13;5029708;28;20107;-71
2021/12/28 06:00:39;;;;;;;56.40;30.63;;;;;;;8.00;79.17;100635.94;5029846;28;20466;-72
2021/12/28 06:03:06;;;;;;;52.10;29.30;;;;;;;8.03;79.24;100629.72;5029775;28;20049;-70
2021/12/28 06:05:39;;;;;;;56.45;31.27;;;;;;;8.03;79.31;100628.88;5029580;28;20045;-71
2021/12/28 06:08:08;;;;;;;52.08;29.27;;;;;;;8.03;79.30;100631.50;5028416;28;20049;-71
2021/12/28 06:10:55;;;;;;;52.22;28.98;;;;;;;8.08;79.25;100630.34;5029699;28;20091;-70
2021/12/28 06:13:23;;;;;;;49.65;29.35;;;;;;;8.09;79.20;100629.44;5030042;28;20491;-70
2021/12/28 06:15:50;;;;;;;51.05;30.20;;;;;;;8.11;79.22;100627.59;5029397;28;20368;-70
2021/12/28 06:18:17;;;;;;;55.00;31.27;;;;;;;8.12;79.08;100642.34;5029706;28;20097;-71
2021/12/28 06:20:44;;;;;;;52.53;29.00;;;;;;;8.15;79.24;100636.13;5029506;28;20068;-70
2021/12/28 06:23:11;;;;;;;49.55;29.48;;;;;;;8.18;79.09;100633.38;5029826;28;20057;-70
2021/12/28 06:25:39;;;;;;;50.17;29.75;;;;;;;8.20;78.90;100638.50;5028590;28;20054;-70
2021/12/28 06:28:07;;;;;;;52.05;30.40;;;;;;;8.21;79.03;100640.22;5029381;28;20081;-70
2021/12/28 06:30:35;;;;;;;49.72;29.88;;;;;;;8.21;78.85;100646.28;5029626;28;20056;-70
2021/12/28 06:33:02;;;;;;;47.05;28.98;;;;;;;8.23;78.88;100641.84;5028910;28;20041;-70
2021/12/28 06:35:30;;;;;;;50.83;30.08;;;;;;;8.23;78.91;100639.22;5028821;28;20046;-71
2021/12/28 06:37:56;;;;;;;53.05;30.75;;;;;;;8.25;78.94;100644.38;5029152;28;20458;-71
2021/12/28 06:40:23;;;;;;;48.65;28.60;;;;;;;8.25;78.89;100636.53;5028408;28;20498;-71
2021/12/28 06:42:50;;;;;;;51.50;30.27;;;;;;;8.25;78.91;100650.47;5029072;28;20049;-70
2021/12/28 06:45:16;;;;;;;49.53;29.77;;;;;;;8.22;78.85;100653.19;5029576;28;20045;-70
2021/12/28 06:47:43;;;;;;;52.38;29.48;;;;;;;8.21;79.13;100654.13;5029143;28;20046;-70
2021/12/28 06:50:10;;;;;;;51.03;29.25;;;;;;;8.22;79.10;100653.19;5029049;28;20054;-71
2021/12/28 06:52:38;;;;;;;50.05;29.75;;;;;;;8.22;78.89;100655.81;5029116;28;20121;-70
2021/12/28 06:55:06;;;;;;;51.25;29.88;;;;;;;8.23;78.93;100649.69;5028930;28;20057;-71
2021/12/28 06:57:33;;;;;;;54.05;29.55;;;;;;;8.22;78.99;100642.75;5028027;28;20107;-70
2021/12/28 07:00:00;;;;;;;50.90;30.55;;;;;;;8.22;78.89;100653.19;5028826;28;20470;-70
2021/12/28 07:02:27;;;;;;;48.42;29.15;;;;;;;8.19;78.91;100658.59;5045454;28;20565;-70
2021/12/28 07:04:53;;;;;;;51.95;28.95;;;;;;;8.21;78.90;100656.72;5048844;28;20091;-70
2021/12/28 07:07:20;;;;;;;49.03;28.60;;;;;;;8.21;78.94;100664.56;5048976;28;20544;-70
2021/12/28 07:09:47;;;;;;;49.80;28.77;;;;;;;8.21;78.93;100661.97;5048999;28;20057;-70
2021/12/28 07:12:14;;;;;;;49.20;29.38;;;;;;;8.25;78.88;100665.28;5048202;28;20110;-68
2021/12/28 07:14:40;;;;;;;48.83;29.10;;;;;;;8.26;78.87;100664.38;5029604;28;20041;-68
2021/12/28 07:17:07;;;;;;;50.45;31.15;;;;;;;8.28;78.87;100662.53;5035904;28;20049;-68
2021/12/28 07:19:34;;;;;;;51.03;28.20;;;;;;;8.27;78.77;100661.66;5040398;28;20570;-67
2021/12/28 07:22:00;;;;;;;50.17;29.60;;;;;;;8.28;78.68;100658.13;5042535;28;20516;-68
2021/12/28 07:24:27;;;;;;;49.15;28.70;;;;;;;8.29;78.75;100658.97;5043127;28;20045;-67
2021/12/28 07:26:54;;;;;;;49.58;28.83;;;;;;;8.30;78.66;100672.00;5041492;28;20483;-68
2021/12/28 07:29:20;;;;;;;48.35;30.02;;;;;;;8.32;78.73;100677.13;5041300;28;20116;-68
2021/12/28 07:31:48;;;;;;;49.90;29.73;;;;;;;8.33;78.58;100686.69;5042549;28;20403;-68
2021/12/28 07:34:14;;;;;;;57.33;31.75;;;;;;;8.31;78.59;100691.13;5041074;28;20072;-68
2021/12/28 07:36:41;;;;;;;54.85;31.92;;;;;;;8.28;78.60;100702.59;5039624;28;20045;-68
2021/12/28 07:39:08;;;;;;;56.83;32.08;;;;;;;8.26;78.71;100709.63;5037554;28;20053;-68
2021/12/28 07:41:35;;;;;;;54.15;32.08;;;;;;;8.29;78.86;100716.50;5042154;28;20491;-68
2021/12/28 07:44:02;;;;;;;52.95;31.45;;;;;;;8.25;78.83;100720.19;5042427;28;20080;-68
2021/12/28 07:46:29;;;;;;;57.13;33.35;;;;;;;8.26;78.88;100708.81;5039998;28;20045;-68
2021/12/28 07:48:56;;;;;;;56.35;33.28;;;;;;;8.28;78.78;100706.97;5042089;28;20395;-69
2021/12/28 07:51:22;;;;;;;58.03;34.28;;;;;;;8.27;78.88;100697.44;5039733;28;20045;-68
2021/12/28 07:53:49;;;;;;;60.78;33.15;;;;;;;8.25;78.78;100707.09;5042417;28;20041;-68
2021/12/28 07:56:16;;;;;;;58.22;33.22;;;;;;;8.24;78.82;100708.88;5041321;28;20041;-68
2021/12/28 07:58:44;;;;;;;59.60;32.83;;;;;;;8.28;79.01;100713.03;5040909;28;20122;-69
2021/12/28 08:01:12;;;;;;;57.60;33.08;;;;;;;8.29;78.85;100706.91;5040616;28;20046;-68
2021/12/28 08:03:39;;;;;;;60.42;33.63;;;;;;;8.33;78.73;100695.38;5040012;28;20045;-68
2021/12/28 08:06:05;;;;;;;58.53;33.67;;;;;;;8.34;78.67;100707.53;5042209;28;20111;-68
2021/12/28 08:08:32;;;;;;;58.15;33.90;;;;;;;8.33;78.83;100712.84;5038277;28;20041;-68
2021/12/28 08:10:59;;;;;;;60.78;34.70;;;;;;;8.31;78.81;100710.25;5049184;28;20045;-68
2021/12/28 08:13:26;;;;;;;59.83;33.00;;;;;;;8.34;78.85;100717.13;5045094;28;20491;-68
2021/12/28 08:15:55;;;;;;;56.97;33.22;;;;;;;8.37;78.73;100711.75;5027284;28;20060;-69
2021/12/28 08:18:23;;;;;;;64.15;35.97;;;;;;;8.36;78.66;100722.28;5028151;28;20095;-68
2021/12/28 08:20:50;;;;;;;73.75;38.38;;;;;;;8.25;78.83;100717.56;5030367;28;20057;-68
2021/12/28 08:23:16;;;;;;;70.65;37.17;;;;;;;8.21;78.92;100719.47;5031912;28;20053;-67
2021/12/28 08:25:43;;;;;;;70.45;37.30;;;;;;;8.22;79.01;100708.09;5031102;28;20045;-69
2021/12/28 08:28:10;;;;;;;82.05;40.72;;;;;;;8.25;78.91;100705.34;5031207;28;20053;-68
2021/12/28 08:30:37;;;;;;;71.22;39.55;;;;;;;8.29;78.91;100700.81;5030880;28;20045;-68
2021/12/28 08:33:06;;;;;;;80.32;41.33;;;;;;;8.31;78.89;100684.13;5030263;28;20053;-68
2021/12/28 08:35:33;;;;;;;74.43;40.95;;;;;;;8.36;78.63;100693.53;5029345;28;20061;-68
2021/12/28 08:38:00;;;;;;;73.35;40.20;;;;;;;8.30;78.74;100687.69;5034689;28;20474;-67
2021/12/28 08:40:26;;;;;;;74.70;40.30;;;;;;;8.37;78.64;100684.75;5039747;28;20490;-69
2021/12/28 08:42:53;;;;;;;77.65;41.97;;;;;;;8.38;78.57;100695.16;5041214;28;20052;-68
2021/12/28 08:45:20;;;;;;;84.05;44.33;;;;;;;8.41;78.71;100691.53;5041458;28;20056;-68
2021/12/28 08:47:48;;;;;;;78.53;44.03;;;;;;;8.36;78.59;100707.44;5051013;28;20095;-68
2021/12/28 08:50:16;;;;;;;77.55;42.78;;;;;;;8.29;78.83;100714.75;5046929;28;20061;-68
2021/12/28 08:52:43;;;;;;;79.80;43.17;;;;;;;8.26;78.94;100722.72;5031165;28;20057;-68
2021/12/28 08:55:18;;;;;;;83.05;42.47;;;;;;;8.31;78.93;100731.19;5030614;28;20045;-67
2021/12/28 08:57:46;;;;;;;78.43;47.33;;;;;;;8.34;79.02;100738.03;5033346;28;20392;-67
2021/12/28 09:00:19;;;;;;;88.53;48.65;;;;;;;8.32;79.08;100725.03;5040159;28;20511;-67
2021/12/28 09:02:46;;;;;;;105.90;56.67;;;;;;;8.36;79.07;100723.13;5047585;28;20049;-70
2021/12/28 09:05:13;;;;;;;133.13;78.35;;;;;;;8.38;78.92;100720.44;5050752;28;20049;-69
2021/12/28 09:07:40;;;;;;;255.02;137.13;;;;;;;8.43;78.93;100705.38;5034022;28;20053;-69
2021/12/28 09:10:07;;;;;;;105.65;59.33;;;;;;;8.50;78.59;100704.19;5030634;28;20092;-70
2021/12/28 09:12:34;;;;;;;159.77;104.55;;;;;;;8.47;78.66;100704.34;5030859;28;20049;-70
2021/12/28 09:15:00;;;;;;;90.88;52.22;;;;;;;8.45;78.75;100707.00;5029591;28;20062;-70
2021/12/28 09:17:27;;;;;;;97.13;50.67;;;;;;;8.48;78.71;100709.50;5029717;28;20045;-69
2021/12/28 09:19:54;;;;;;;124.32;62.88;;;;;;;8.44;78.91;100722.75;5030508;28;20388;-70
2021/12/28 09:22:20;;;;;;;121.28;60.35;;;;;;;8.46;78.95;100723.56;5030425;28;20053;-67
2021/12/28 09:24:47;;;;;;;133.23;68.43;;;;;;;8.48;78.85;100738.28;5028802;28;20095;-67
2021/12/28 09:27:19;;;;;;;111.55;60.03;;;;;;;8.54;78.95;100725.81;5034533;28;20128;-67
2021/12/28 09:29:45;;;;;;;104.47;54.58;;;;;;;8.60;78.64;100728.13;5038782;28;20045;-67
2021/12/28 09:32:18;;;;;;;103.95;54.38;;;;;;;8.63;78.57;100728.84;5044212;28;20070;-68
2021/12/28 09:34:48;;;;;;;132.35;63.10;;;;;;;8.68;78.69;100727.75;5043141;28;20050;-67
2021/12/28 09:37:15;;;;;;;108.47;58.83;;;;;;;8.69;78.60;100719.84;5038188;28;20553;-68
2021/12/28 09:39:42;;;;;;;93.75;53.67;;;;;;;8.71;78.76;100711.91;5044101;28;20121;-68
2021/12/28 09:42:09;;;;;;;87.93;49.38;;;;;;;8.73;78.58;100712.69;5037477;28;20060;-68
2021/12/28 09:44:36;;;;;;;133.82;70.10;;;;;;;8.73;78.64;100720.53;5029340;28;20049;-67
2021/12/28 09:47:04;;;;;;;136.00;67.18;;;;;;;8.75;78.47;100730.00;5029482;28;20049;-68
2021/12/28 09:49:32;;;;;;;106.25;54.00;;;;;;;8.73;78.95;100720.53;5033480;28;20053;-68
2021/12/28 09:52:02;;;;;;;105.75;54.80;;;;;;;8.74;78.67;100717.84;5038662;28;20041;-68
2021/12/28 09:54:29;;;;;;;125.47;63.28;;;;;;;8.68;78.79;100712.91;5044193;28;20045;-69
2021/12/28 09:56:59;;;;;;;120.78;60.50;;;;;;;8.68;79.00;100705.06;5040307;28;20045;-68
2021/12/28 09:59:28;;;;;;;118.82;58.75;;;;;;;8.72;78.77;100706.59;5029502;28;20058;-68
2021/12/28 10:01:54;;;;;;;131.77;80.57;;;;;;;8.72;78.98;100714.44;5029291;28;20049;-67
2021/12/28 10:04:21;;;;;;;124.90;68.10;;;;;;;8.77;78.63;100717.69;5029203;28;20129;-66
2021/12/28 10:06:48;;;;;;;172.10;98.90;;;;;;;8.71;78.82;100702.31;5028786;28;20095;-67
2021/12/28 10:09:18;;;;;;;164.18;91.88;;;;;;;8.79;78.43;100701.91;5029673;28;20061;-66
2021/12/28 10:11:54;;;;;;;118.55;68.47;;;;;;;8.81;78.78;100692.19;5028329;28;20041;-67
2021/12/28 10:14:27;;;;;;;99.25;55.75;;;;;;;8.83;78.70;100698.22;5028908;28;20057;-68
2021/12/28 10:17:00;;;;;;;91.28;51.17;;;;;;;8.86;78.56;100699.84;5028024;28;20041;-68
2021/12/28 10:19:40;;;;;;;91.80;53.75;;;;;;;8.85;78.43;100692.91;5029364;28;20050;-68
2021/12/28 10:22:32;;;;;;;89.00;48.55;;;;;;;8.85;78.72;100690.28;5029247;28;20060;-68
2021/12/28 10:24:59;;;;;;;96.30;52.70;;;;;;;8.86;78.56;100682.34;5028798;28;20045;-67
2021/12/28 10:27:28;;;;;;;98.72;53.35;;;;;;;8.87;78.54;100686.66;5029080;28;20096;-68
2021/12/28 10:30:02;;;;;;;102.75;54.50;;;;;;;8.91;78.38;100682.13;5029062;28;20103;-68
2021/12/28 10:32:29;;;;;;;94.65;50.60;;;;;;;8.89;78.43;100686.59;5028062;28;20045;-68
2021/12/28 10:35:06;;;;;;;99.57;54.13;;;;;;;8.91;78.57;100695.22;5028543;28;20045;-68
2021/12/28 10:37:39;;;;;;;105.63;55.67;;;;;;;8.90;78.63;100675.19;5029158;28;20049;-68
2021/12/28 10:40:10;;;;;;;111.18;60.45;;;;;;;8.85;78.54;100680.69;5028790;28;20045;-68
2021/12/28 10:42:53;;;;;;;91.07;50.58;;;;;;;8.86;78.77;100691.97;5031568;28;20049;-68
2021/12/28 10:45:36;;;;;;;97.85;54.88;;;;;;;8.85;78.73;100698.13;5028266;28;20053;-67
2021/12/28 10:48:07;;;;;;;98.03;53.90;;;;;;;8.89;78.65;100695.28;5027549;28;20068;-71
2021/12/28 10:50:38;;;;;;;101.90;54.67;;;;;;;8.89;78.42;100702.28;5028639;28;20057;-70
2021/12/28 10:53:25;;;;;;;173.50;96.35;;;;;;;8.84;78.89;100702.53;5028115;28;20049;-68
2021/12/28 10:55:55;;;;;;;143.02;81.28;;;;;;;8.83;78.86;100693.81;5028515;28;20080;-68
2021/12/28 10:58:41;;;;;;;243.82;125.10;;;;;;;8.80;78.78;100693.16;5028181;28;20052;-68
2021/12/28 11:01:14;;;;;;;303.75;152.90;;;;;;;8.94;78.84;100687.22;5034440;28;20045;-69
2021/12/28 11:03:44;;;;;;;150.18;82.57;;;;;;;8.90;78.63;100680.44;5036880;28;20049;-69
2021/12/28 11:06:33;;;;;;;121.82;67.15;;;;;;;8.97;78.72;100669.56;5035230;28;20083;-68
2021/12/28 11:09:09;;;;;;;119.85;61.80;;;;;;;9.04;78.61;100670.13;5028183;28;20091;-72
2021/12/28 11:11:36;;;;;;;125.65;64.80;;;;;;;9.02;78.69;100678.97;5030923;28;20457;-71
2021/12/28 11:14:06;;;;;;;128.90;68.05;;;;;;;9.01;78.62;100677.28;5027612;28;20092;-71
2021/12/28 11:16:35;;;;;;;110.13;58.03;;;;;;;9.06;78.55;100660.41;5028828;28;20049;-71
2021/12/28 11:19:05;;;;;;;175.10;84.97;;;;;;;9.09;78.37;100667.25;5027742;28;20053;-72
2021/12/28 11:21:51;;;;;;;210.82;96.60;;;;;;;9.10;78.34;100671.56;5033287;28;20069;-71
2021/12/28 11:24:18;;;;;;;47.70;27.20;;;;;;;9.62;78.07;100657.50;5035270;28;20045;-68